Time;durP1;ratioP1;P1;durP2;ratioP2;P2;SDS_P1;SDS_P2;PMS_P1;PMS_P2;Temp;Humidity;BMP_temperature;BMP_pressure;BME280_temperature;BME280_humidity;BME280_pressure;Samples;Min_cycle;Max_cycle;Signal;HPM_P1;HPM_P2
2021/07/08 00:00:44;;;;;;;;;6.75;6.25;;;;;20.61;44.49;101417.66;5099335;27;45513;-47
2021/07/08 00:03:10;;;;;;;;;7.00;7.00;;;;;20.58;45.03;101420.47;5098901;27;45684;-48
2021/07/08 00:05:39;;;;;;;;;11.50;5.50;;;;;20.57;44.89;101419.59;5099332;27;45370;-49
2021/07/08 00:08:05;;;;;;;;;5.00;5.00;;;;;20.56;44.61;101419.66;5079441;27;45399;-51
2021/07/08 00:10:36;;;;;;;;;6.00;5.00;;;;;20.49;44.62;101413.75;5099055;27;45379;-47
2021/07/08 00:13:02;;;;;;;;;5.25;4.00;;;;;20.51;44.65;101427.00;5097016;27;45950;-47
2021/07/08 00:15:29;;;;;;;;;3.50;3.50;;;;;20.48;45.33;101424.47;5086105;27;45492;-50
2021/07/08 00:17:55;;;;;;;;;4.25;4.25;;;;;20.45;45.35;101417.47;5098785;27;45291;-47
2021/07/08 00:20:24;;;;;;;;;5.50;3.75;;;;;20.41;45.24;101418.56;5098816;27;45273;-48
2021/07/08 00:22:50;;;;;;;;;5.50;5.50;;;;;20.40;45.48;101420.38;5098582;27;46158;-52
2021/07/08 00:25:20;;;;;;;;;6.75;5.50;;;;;20.39;45.05;101415.06;5098950;27;45457;-49
2021/07/08 00:27:46;;;;;;;;;4.50;4.50;;;;;20.35;45.38;101411.69;5094064;27;45490;-51
2021/07/08 00:30:12;;;;;;;;;6.00;5.00;;;;;20.35;45.20;101418.81;5082789;27;45407;-51
2021/07/08 00:32:40;;;;;;;;;4.25;4.00;;;;;20.29;45.65;101414.63;5101450;27;46755;-51
2021/07/08 00:35:07;;;;;;;;;3.75;3.75;;;;;20.24;45.61;101409.50;5102101;27;45355;-50
2021/07/08 00:37:32;;;;;;;;;5.50;5.50;;;;;20.20;45.46;101415.91;5102729;27;45377;-52
2021/07/08 00:39:57;;;;;;;;;5.50;5.00;;;;;20.17;45.63;101418.69;5101898;27;45306;-51
2021/07/08 00:42:23;;;;;;;;;6.00;6.00;;;;;20.11;45.58;101419.84;5102197;27;45272;-49
2021/07/08 00:44:48;;;;;;;;;8.50;5.00;;;;;20.09;45.87;101421.72;5083876;27;45337;-48
2021/07/08 00:47:14;;;;;;;;;6.00;4.00;;;;;20.07;45.84;101420.88;5084198;27;45306;-48
2021/07/08 00:49:39;;;;;;;;;8.00;8.00;;;;;20.02;46.14;101417.56;5102375;27;45322;-50
2021/07/08 00:52:04;;;;;;;;;7.00;6.00;;;;;20.02;45.75;101419.38;5101913;27;46032;-50
2021/07/08 00:54:30;;;;;;;;;10.00;7.75;;;;;19.99;46.08;101420.38;5102291;27;45448;-52
2021/07/08 00:56:55;;;;;;;;;4.75;4.00;;;;;19.96;46.17;101423.16;5101765;27;45182;-51
2021/07/08 00:59:21;;;;;;;;;8.00;6.50;;;;;19.93;45.71;101418.81;5102213;27;45580;-49
2021/07/08 01:01:47;;;;;;;;;8.50;6.50;;;;;19.93;46.31;101424.16;5083605;27;46120;-49
2021/07/08 01:04:14;;;;;;;;;8.00;6.00;;;;;19.91;45.87;101420.72;5101734;27;45447;-47
2021/07/08 01:06:43;;;;;;;;;6.75;6.75;;;;;19.90;46.25;101431.41;5102077;27;45385;-52
2021/07/08 01:09:09;;;;;;;;;6.75;5.00;;;;;19.89;46.56;101432.38;5101676;27;45979;-50
2021/07/08 01:11:35;;;;;;;;;6.00;6.00;;;;;19.88;46.21;101430.63;5083250;27;46101;-50
2021/07/08 01:14:00;;;;;;;;;5.25;4.25;;;;;19.86;46.13;101422.72;5094840;27;45458;-50
2021/07/08 01:16:27;;;;;;;;;7.25;6.75;;;;;19.85;46.61;101426.31;5095366;27;45354;-47
2021/07/08 01:18:53;;;;;;;;;7.50;6.00;;;;;19.84;46.38;101421.88;5101350;27;45707;-50
2021/07/08 01:21:25;;;;;;;;;5.50;5.00;;;;;19.84;46.37;101421.03;5101558;27;46118;-49
2021/07/08 01:23:52;;;;;;;;;5.75;5.00;;;;;19.83;46.27;101414.81;5101510;27;45459;-50
2021/07/08 01:26:17;;;;;;;;;5.50;5.00;;;;;19.83;46.70;101421.97;5093785;27;45395;-48
2021/07/08 01:28:43;;;;;;;;;6.00;5.50;;;;;19.83;46.85;101419.31;5083094;27;45418;-51
2021/07/08 01:31:09;;;;;;;;;6.25;4.00;;;;;19.82;46.92;101429.03;5100018;27;45540;-49
2021/07/08 01:33:34;;;;;;;;;6.00;6.00;;;;;19.81;46.55;101430.00;5101515;27;45307;-47
2021/07/08 01:36:00;;;;;;;;;6.00;5.25;;;;;19.79;46.88;101434.53;5101345;27;45375;-48
2021/07/08 01:38:26;;;;;;;;;5.25;4.50;;;;;19.78;46.99;101438.97;5101529;27;45350;-53
2021/07/08 01:40:51;;;;;;;;;6.50;4.75;;;;;19.78;46.65;101444.31;5100738;27;45422;-49
2021/07/08 01:43:17;;;;;;;;;6.50;5.75;;;;;19.75;46.91;101441.78;5101242;27;45402;-48
2021/07/08 01:45:43;;;;;;;;;5.00;5.00;;;;;19.76;46.75;101443.53;5101576;27;45256;-49
2021/07/08 01:48:08;;;;;;;;;6.00;6.00;;;;;19.77;46.62;101445.25;5100972;27;45773;-50
2021/07/08 01:50:34;;;;;;;;;7.75;5.75;;;;;19.74;46.91;101445.38;5082807;27;48497;-48
2021/07/08 01:52:59;;;;;;;;;6.00;6.00;;;;;19.72;47.30;101439.25;5101138;27;45394;-50
2021/07/08 01:55:25;;;;;;;;;5.50;4.75;;;;;19.63;47.39;101426.28;5101525;27;45426;-49
2021/07/08 01:57:56;;;;;;;;;5.00;5.00;;;;;19.70;46.88;101442.88;5100579;27;45423;-48
2021/07/08 02:00:23;;;;;;;;;5.25;5.25;;;;;19.69;47.32;101452.69;5101094;27;47136;-49
2021/07/08 02:02:48;;;;;;;;;4.25;4.25;;;;;19.68;47.34;101448.28;5100840;27;45216;-50
2021/07/08 02:05:14;;;;;;;;;5.00;5.00;;;;;19.68;47.46;101448.28;5101198;27;45485;-52
2021/07/08 02:07:39;;;;;;;;;7.25;5.00;;;;;19.68;47.43;101456.28;5099232;27;45451;-48
2021/07/08 02:10:06;;;;;;;;;4.50;4.50;;;;;19.68;47.44;101453.63;5100313;27;45967;-52
2021/07/08 02:12:32;;;;;;;;;6.75;5.75;;;;;19.67;47.57;101446.53;5100356;27;45474;-50
2021/07/08 02:14:57;;;;;;;;;5.00;5.00;;;;;19.66;47.16;101450.16;5087530;27;45351;-48
2021/07/08 02:17:23;;;;;;;;;7.00;5.00;;;;;19.63;47.38;101453.84;5100935;27;45543;-49
2021/07/08 02:19:48;;;;;;;;;6.00;5.00;;;;;19.63;47.59;101460.94;5095619;27;45434;-50
2021/07/08 02:22:14;;;;;;;;;5.75;5.75;;;;;19.62;47.52;101460.09;5082439;27;45477;-49
2021/07/08 02:24:39;;;;;;;;;6.75;5.50;;;;;19.61;47.62;101462.81;5100987;27;45373;-53
2021/07/08 02:27:05;;;;;;;;;6.50;6.00;;;;;19.56;47.82;101463.00;5099976;27;45373;-52
2021/07/08 02:29:30;;;;;;;;;7.00;6.00;;;;;19.51;48.01;101451.66;5100651;27;46189;-49
2021/07/08 02:31:56;;;;;;;;;6.50;5.25;;;;;19.52;47.96;101447.19;5099037;27;45310;-51
2021/07/08 02:34:21;;;;;;;;;5.00;5.00;;;;;19.45;48.01;101442.09;5101050;27;45532;-49
2021/07/08 02:36:46;;;;;;;;;4.50;4.50;;;;;19.46;47.68;101448.31;5100466;27;45325;-48
2021/07/08 02:39:12;;;;;;;;;3.50;3.50;;;;;19.42;47.58;101436.91;5082013;27;46982;-49
2021/07/08 02:41:37;;;;;;;;;5.25;4.75;;;;;19.41;47.94;101435.16;5081846;27;45303;-52
2021/07/08 02:44:03;;;;;;;;;6.00;4.75;;;;;19.41;47.61;101447.63;5100395;27;45540;-49
2021/07/08 02:46:28;;;;;;;;;9.25;6.25;;;;;19.40;48.05;101435.25;5100480;27;45508;-50
2021/07/08 02:48:54;;;;;;;;;6.00;6.00;;;;;19.37;47.90;101435.34;5100165;27;45912;-47
2021/07/08 02:51:19;;;;;;;;;6.25;5.75;;;;;19.34;48.22;101436.34;5099538;27;45351;-49
2021/07/08 02:53:45;;;;;;;;;3.50;3.50;;;;;19.33;48.30;101431.94;5085778;27;45877;-51
2021/07/08 02:56:11;;;;;;;;;8.00;5.75;;;;;19.30;47.94;101427.59;5099854;27;45615;-47
2021/07/08 02:58:37;;;;;;;;;4.25;4.25;;;;;19.27;47.96;101424.19;5100172;27;47118;-51
2021/07/08 03:01:04;;;;;;;;;5.50;4.00;;;;;19.26;48.17;101419.81;5081428;27;45487;-47
2021/07/08 03:03:29;;;;;;;;;7.00;5.00;;;;;19.24;48.16;101437.63;5081920;27;45407;-50
2021/07/08 03:05:55;;;;;;;;;3.50;3.50;;;;;19.21;48.33;101433.31;5099736;27;45345;-49
2021/07/08 03:08:20;;;;;;;;;3.25;3.25;;;;;19.20;48.26;101439.56;5100140;27;45330;-50
2021/07/08 03:10:46;;;;;;;;;6.25;5.00;;;;;19.19;48.65;101442.28;5099945;27;45358;-48
2021/07/08 03:13:11;;;;;;;;;6.00;4.00;;;;;19.18;48.41;101444.06;5080211;27;45361;-50
2021/07/08 03:15:37;;;;;;;;;4.00;4.00;;;;;19.16;48.36;101436.13;5087816;27;45492;-51
2021/07/08 03:18:03;;;;;;;;;10.00;7.25;;;;;19.15;48.15;101434.41;5099535;27;46326;-50
2021/07/08 03:20:33;;;;;;;;;7.75;5.00;;;;;19.15;48.48;101441.53;5081318;27;45274;-53
2021/07/08 03:22:59;;;;;;;;;4.00;4.00;;;;;19.14;48.23;101443.34;5099754;27;45394;-50
2021/07/08 03:25:26;;;;;;;;;6.00;6.00;;;;;19.11;48.91;101438.13;5099649;27;45314;-48
2021/07/08 03:27:53;;;;;;;;;6.00;6.00;;;;;19.10;48.80;101448.84;5099241;27;46362;-50
2021/07/08 03:30:20;;;;;;;;;5.50;5.50;;;;;19.06;48.82;101458.72;5099718;27;45765;-51
2021/07/08 03:32:48;;;;;;;;;5.50;5.50;;;;;19.03;48.71;101458.88;5096108;27;45247;-48
2021/07/08 03:35:14;;;;;;;;;4.25;4.00;;;;;19.01;48.96;101468.69;5099591;27;45554;-51
2021/07/08 03:37:40;;;;;;;;;7.00;7.00;;;;;18.97;48.66;101467.94;5099719;27;46222;-48
2021/07/08 03:40:07;;;;;;;;;3.50;3.50;;;;;18.97;48.89;101472.41;5099090;27;45394;-49
2021/07/08 03:42:35;;;;;;;;;7.25;5.00;;;;;18.93;49.10;101478.75;5084220;27;45365;-52
2021/07/08 03:45:01;;;;;;;;;6.00;4.00;;;;;18.87;49.33;101471.84;5099207;27;45271;-49
2021/07/08 03:47:26;;;;;;;;;6.50;6.50;;;;;18.84;49.21;101477.28;5099659;27;45227;-49
2021/07/08 03:49:51;;;;;;;;;6.50;6.50;;;;;18.81;49.04;101486.25;5099122;27;45315;-51
2021/07/08 03:52:17;;;;;;;;;5.00;3.50;;;;;18.78;49.28;101480.16;5099781;27;45555;-49
2021/07/08 03:54:42;;;;;;;;;5.75;4.25;;;;;18.74;48.92;101486.53;5081198;27;45612;-51
2021/07/08 03:57:07;;;;;;;;;6.50;5.50;;;;;18.72;49.26;101489.25;5099124;27;45514;-50
2021/07/08 03:59:33;;;;;;;;;9.25;7.75;;;;;18.67;49.32;101486.75;5099384;27;45334;-47
2021/07/08 04:01:58;;;;;;;;;5.00;5.00;;;;;18.65;49.57;101493.94;5099299;27;45495;-50
2021/07/08 04:04:23;;;;;;;;;4.75;4.75;;;;;18.60;49.64;101495.03;5102170;27;45426;-47
2021/07/08 04:06:49;;;;;;;;;5.25;5.00;;;;;18.61;49.31;101491.44;5102822;27;45502;-51
2021/07/08 04:09:14;;;;;;;;;6.00;6.00;;;;;18.58;49.52;101502.19;5103000;27;45350;-51
2021/07/08 04:11:40;;;;;;;;;5.00;5.00;;;;;18.57;49.66;101500.47;5102685;27;45253;-51
2021/07/08 04:14:05;;;;;;;;;5.00;5.00;;;;;18.54;49.58;101496.13;5095252;27;45310;-50
2021/07/08 04:16:30;;;;;;;;;6.25;6.00;;;;;18.50;49.86;101500.69;5096916;27;45773;-50
2021/07/08 04:18:56;;;;;;;;;5.50;5.00;;;;;18.45;50.01;101493.78;5102246;27;45470;-50
2021/07/08 04:21:22;;;;;;;;;6.75;4.75;;;;;18.42;49.97;101492.09;5102920;27;45390;-51
2021/07/08 04:23:47;;;;;;;;;5.75;5.75;;;;;18.43;49.93;101492.97;5102675;27;45283;-51
2021/07/08 04:26:12;;;;;;;;;6.00;6.00;;;;;18.41;49.95;101493.00;5102138;27;45617;-50
2021/07/08 04:28:38;;;;;;;;;5.75;5.75;;;;;18.39;50.26;101491.31;5102466;27;45268;-51
2021/07/08 04:31:04;;;;;;;;;4.25;4.25;;;;;18.37;50.27;101495.84;5101264;27;45431;-52
2021/07/08 04:33:29;;;;;;;;;2.50;1.75;;;;;18.31;50.25;101486.28;5101233;27;45235;-52
2021/07/08 04:35:55;;;;;;;;;7.00;6.00;;;;;18.29;50.39;101489.00;5092504;27;46093;-52
2021/07/08 04:38:22;;;;;;;;;4.25;4.00;;;;;18.28;50.42;101489.06;5082677;27;45351;-48
2021/07/08 04:40:47;;;;;;;;;5.50;5.50;;;;;18.26;50.34;101490.88;5099066;27;45444;-50
2021/07/08 04:43:13;;;;;;;;;5.00;5.00;;;;;18.25;50.23;101500.69;5098517;27;45473;-51
2021/07/08 04:45:39;;;;;;;;;5.25;4.00;;;;;18.26;50.72;101496.22;5102415;27;45517;-48
2021/07/08 04:48:06;;;;;;;;;8.50;6.25;;;;;18.27;50.26;101503.28;5101831;27;46518;-50
2021/07/08 04:50:33;;;;;;;;;7.75;6.50;;;;;18.29;50.46;101504.97;5102676;27;45427;-52
2021/07/08 04:52:59;;;;;;;;;6.25;6.25;;;;;18.30;50.38;101505.81;5101938;27;45240;-48
2021/07/08 04:55:25;;;;;;;;;5.25;4.50;;;;;18.31;50.52;101515.53;5102216;27;46267;-50
2021/07/08 04:57:52;;;;;;;;;4.50;4.50;;;;;18.33;50.45;101522.53;5101337;27;45314;-51
2021/07/08 05:00:20;;;;;;;;;8.00;7.25;;;;;18.34;50.59;101515.47;5102354;27;45306;-47
2021/07/08 05:02:46;;;;;;;;;5.00;5.00;;;;;18.34;50.85;101516.31;5102028;27;45608;-49
2021/07/08 05:05:13;;;;;;;;;7.75;7.00;;;;;18.37;50.77;101519.81;5083498;27;45984;-51
2021/07/08 05:07:39;;;;;;;;;6.75;5.50;;;;;18.38;50.63;101524.16;5102044;27;45299;-47
2021/07/08 05:10:07;;;;;;;;;7.00;6.25;;;;;18.38;50.75;101522.41;5101715;27;45548;-50
2021/07/08 05:12:33;;;;;;;;;5.25;5.00;;;;;18.40;50.56;101525.00;5101517;27;45473;-48
2021/07/08 05:14:58;;;;;;;;;9.75;7.25;;;;;18.40;50.52;101533.88;5087290;27;46057;-47
2021/07/08 05:17:24;;;;;;;;;8.00;5.75;;;;;18.37;50.94;101525.97;5101669;27;45493;-52
2021/07/08 05:19:50;;;;;;;;;7.25;7.00;;;;;18.40;50.79;101538.31;5101514;27;45386;-47
2021/07/08 05:22:18;;;;;;;;;7.50;6.00;;;;;18.40;51.07;101536.53;5101833;27;45322;-46
2021/07/08 05:24:44;;;;;;;;;8.75;7.25;;;;;18.42;50.91;101539.13;5096383;27;47000;-48
2021/07/08 05:27:16;;;;;;;;;8.00;7.00;;;;;18.42;51.05;101547.97;5098646;27;45150;-46
2021/07/08 05:29:43;;;;;;;;;10.50;8.00;;;;;18.43;51.12;101541.72;5079057;27;45292;-48
2021/07/08 05:32:08;;;;;;;;;5.75;5.75;;;;;18.47;50.94;101545.16;5094720;27;45556;-48
2021/07/08 05:34:34;;;;;;;;;6.25;5.25;;;;;18.47;51.40;101539.84;5083234;27;45366;-50
2021/07/08 05:36:59;;;;;;;;;8.25;7.25;;;;;18.50;51.32;101542.38;5093888;27;45547;-46
2021/07/08 05:39:24;;;;;;;;;6.50;6.25;;;;;18.51;51.14;101547.69;5097387;27;45420;-48
2021/07/08 05:41:49;;;;;;;;;7.50;7.00;;;;;18.55;51.06;101552.88;5090607;27;45222;-48
2021/07/08 05:44:15;;;;;;;;;8.75;5.50;;;;;18.59;51.18;101557.16;5077420;27;47175;-46
2021/07/08 05:46:40;;;;;;;;;7.00;7.00;;;;;18.62;51.08;101546.41;5098324;27;45457;-50
2021/07/08 05:49:05;;;;;;;;;7.00;6.75;;;;;18.65;51.42;101547.19;5093563;27;45425;-48
2021/07/08 05:51:31;;;;;;;;;9.50;6.00;;;;;18.72;51.31;101563.81;5097548;27;45421;-51
2021/07/08 05:53:59;;;;;;;;;5.50;5.25;;;;;18.73;51.72;101559.34;5090799;27;46013;-51
2021/07/08 05:56:25;;;;;;;;;11.25;7.50;;;;;18.78;51.21;101552.94;5095658;27;45379;-51
2021/07/08 05:58:51;;;;;;;;;6.25;6.25;;;;;18.84;51.63;101560.72;5097360;27;45415;-46
2021/07/08 06:01:18;;;;;;;;;7.75;7.00;;;;;18.89;51.35;101559.66;5095090;27;45431;-51
2021/07/08 06:03:43;;;;;;;;;5.75;5.75;;;;;18.94;51.62;101565.72;5095278;27;46216;-48
2021/07/08 06:06:08;;;;;;;;;8.75;7.75;;;;;19.00;51.70;101562.84;5095717;27;45256;-49
2021/07/08 06:08:34;;;;;;;;;8.75;7.00;;;;;19.06;51.71;101567.09;5098466;27;45264;-47
2021/07/08 06:10:59;;;;;;;;;8.00;7.00;;;;;19.11;51.74;101567.78;5094065;27;45340;-49
2021/07/08 06:13:24;;;;;;;;;8.00;7.50;;;;;19.15;51.67;101567.59;5075119;27;47176;-50
2021/07/08 06:15:50;;;;;;;;;6.75;6.75;;;;;19.21;51.64;101557.66;5095433;27;45171;-48
2021/07/08 06:18:15;;;;;;;;;7.25;7.00;;;;;19.25;51.61;101556.59;5082650;27;45201;-51
2021/07/08 06:20:40;;;;;;;;;7.75;7.75;;;;;19.32;52.08;101566.13;5098597;27;45290;-50
2021/07/08 06:23:06;;;;;;;;;7.50;6.00;;;;;19.38;51.60;101560.53;5099603;27;46143;-51
2021/07/08 06:25:31;;;;;;;;;8.75;8.00;;;;;19.46;51.80;101565.59;5100028;27;45320;-50
2021/07/08 06:27:57;;;;;;;;;7.25;7.00;;;;;19.53;51.78;101558.22;5091547;27;45319;-51
2021/07/08 06:30:23;;;;;;;;;5.75;5.75;;;;;19.58;51.64;101572.22;5096442;27;45590;-52
2021/07/08 06:32:48;;;;;;;;;10.00;8.00;;;;;19.62;52.11;101564.06;5078524;27;45412;-50
2021/07/08 06:35:18;;;;;;;;;8.25;7.75;;;;;19.69;51.48;101575.34;5077196;27;45318;-48
2021/07/08 06:37:47;;;;;;;;;6.50;5.50;;;;;19.77;51.69;101567.03;5095326;27;45929;-46
2021/07/08 06:40:16;;;;;;;;;8.00;6.00;;;;;19.81;51.52;101569.53;5081951;27;45526;-49
2021/07/08 06:42:42;;;;;;;;;9.50;8.50;;;;;19.88;51.59;101587.97;5097624;27;46088;-52
2021/07/08 06:45:11;;;;;;;;;10.75;8.25;;;;;19.92;51.93;101581.59;5081274;27;45325;-53
2021/07/08 06:47:39;;;;;;;;;7.00;6.00;;;;;19.95;52.08;101579.66;5096878;27;45388;-51
2021/07/08 06:50:06;;;;;;;;;8.75;5.25;;;;;20.01;52.01;101578.53;5091048;27;45333;-52
2021/07/08 06:52:32;;;;;;;;;7.75;6.00;;;;;20.06;51.99;101575.69;5088434;27;46393;-51
2021/07/08 06:54:57;;;;;;;;;8.50;6.75;;;;;20.08;52.10;101581.84;5078060;27;45498;-50
2021/07/08 06:57:22;;;;;;;;;7.00;6.00;;;;;20.17;52.39;101585.94;5061892;28;45549;-50
2021/07/08 06:59:48;;;;;;;;;5.50;5.50;;;;;20.22;51.77;101578.59;5062438;28;45281;-49
2021/07/08 07:02:13;;;;;;;;;5.75;5.00;;;;;20.27;52.23;101587.28;5062599;28;47205;-46
2021/07/08 07:04:39;;;;;;;;;6.25;4.00;;;;;20.36;52.33;101589.56;5076413;28;45243;-50
2021/07/08 07:07:04;;;;;;;;;4.00;3.00;;;;;20.41;52.44;101592.91;5091268;27;45902;-47
2021/07/08 07:09:30;;;;;;;;;6.50;6.00;;;;;20.45;52.29;101597.19;5079272;28;45281;-51
2021/07/08 07:11:55;;;;;;;;;6.75;6.75;;;;;20.49;52.14;101605.06;5069144;28;48039;-50
2021/07/08 07:14:21;;;;;;;;;5.25;5.25;;;;;20.54;52.41;101603.06;5097618;27;45307;-51
2021/07/08 07:16:46;;;;;;;;;6.25;5.00;;;;;20.58;51.75;101605.53;5100917;27;45327;-49
2021/07/08 07:19:11;;;;;;;;;10.00;10.00;;;;;20.63;52.47;101600.03;5100817;27;45148;-51
2021/07/08 07:21:36;;;;;;;;;4.00;4.00;;;;;20.70;52.20;101600.63;5078946;28;45873;-52
2021/07/08 07:24:03;;;;;;;;;7.00;7.00;;;;;20.74;51.83;101596.91;5097324;27;45241;-52
2021/07/08 07:26:28;;;;;;;;;6.50;5.25;;;;;20.81;51.73;101594.84;5100809;27;45339;-52
2021/07/08 07:28:53;;;;;;;;;6.75;6.75;;;;;20.89;51.80;101595.38;5100511;27;45337;-52
2021/07/08 07:31:19;;;;;;;;;6.50;5.25;;;;;20.89;52.11;101593.56;5100616;27;45237;-50
2021/07/08 07:33:44;;;;;;;;;5.25;5.25;;;;;20.91;52.18;101604.19;5100640;27;45346;-50
2021/07/08 07:36:10;;;;;;;;;8.50;6.00;;;;;20.92;52.36;101609.44;5100762;27;45657;-50
2021/07/08 07:38:38;;;;;;;;;4.75;4.50;;;;;20.98;51.71;101608.34;5100122;27;45531;-48
2021/07/08 07:41:04;;;;;;;;;4.75;4.75;;;;;21.01;51.88;101600.16;5100057;27;46261;-49
2021/07/08 07:43:29;;;;;;;;;7.00;6.50;;;;;21.03;51.83;101614.34;5100198;27;45281;-52
2021/07/08 07:45:55;;;;;;;;;6.75;6.00;;;;;21.07;52.17;101602.56;5078887;28;45437;-51
2021/07/08 07:48:20;;;;;;;;;9.25;7.00;;;;;21.04;52.31;101601.84;5097143;27;45626;-52
2021/07/08 07:50:46;;;;;;;;;6.00;6.00;;;;;21.04;52.35;101604.50;5100549;27;45972;-51
2021/07/08 07:53:11;;;;;;;;;5.75;4.50;;;;;21.05;52.36;101604.44;5100109;27;45179;-51
2021/07/08 07:55:37;;;;;;;;;5.00;5.00;;;;;21.06;51.89;101608.84;5078882;28;45288;-51
2021/07/08 07:58:05;;;;;;;;;8.00;7.00;;;;;21.03;52.26;101619.69;5096683;27;45382;-50
2021/07/08 08:00:30;;;;;;;;;8.25;6.75;;;;;20.96;52.19;101609.34;5081869;27;46267;-48
2021/07/08 08:02:56;;;;;;;;;3.25;3.25;;;;;21.00;51.96;101621.63;5100100;27;45408;-52
2021/07/08 08:10:42;;;;;;;;;7.50;5.00;;;;;20.91;52.01;101633.56;5099976;27;45414;-50
2021/07/08 08:13:07;;;;;;;;;5.25;5.00;;;;;20.91;52.62;101623.75;5099991;27;45286;-50
2021/07/08 08:15:33;;;;;;;;;5.00;5.00;;;;;20.89;52.23;101630.09;5085342;27;45278;-49
2021/07/08 08:18:01;;;;;;;;;5.50;4.25;;;;;20.89;52.05;101625.63;5099835;27;45267;-51
2021/07/08 08:20:28;;;;;;;;;4.00;3.25;;;;;20.90;52.46;101629.16;5099760;27;45426;-48
2021/07/08 08:22:55;;;;;;;;;8.00;6.25;;;;;20.90;52.41;101631.81;5100083;27;45418;-52
2021/07/08 08:25:20;;;;;;;;;5.25;5.25;;;;;20.89;52.05;101622.97;5081670;27;45460;-48
2021/07/08 08:27:46;;;;;;;;;5.00;5.00;;;;;20.91;52.03;101633.56;5099759;27;45500;-50
2021/07/08 08:30:13;;;;;;;;;6.25;6.25;;;;;20.93;52.26;101626.38;5099917;27;45324;-50
2021/07/08 08:32:39;;;;;;;;;6.25;3.50;;;;;20.92;52.18;101620.13;5100146;27;45415;-49
2021/07/08 08:35:05;;;;;;;;;3.25;3.25;;;;;20.95;52.19;101619.13;5099914;27;45223;-50
2021/07/08 08:37:30;;;;;;;;;4.00;4.00;;;;;20.92;51.92;101625.47;5099825;27;45427;-52
2021/07/08 08:39:56;;;;;;;;;6.25;5.00;;;;;20.98;52.12;101627.03;5099603;27;45340;-47
2021/07/08 08:42:24;;;;;;;;;5.25;4.00;;;;;21.01;52.22;101624.22;5099940;27;45209;-50
2021/07/08 08:44:50;;;;;;;;;5.00;4.50;;;;;20.98;52.01;101616.34;5099749;27;45318;-49
2021/07/08 08:47:15;;;;;;;;;5.00;5.00;;;;;21.05;52.45;101620.47;5099660;27;45271;-49
2021/07/08 08:49:42;;;;;;;;;8.00;6.00;;;;;21.04;52.30;101623.22;5099665;27;46052;-50
2021/07/08 08:52:09;;;;;;;;;5.75;4.50;;;;;21.07;52.02;101625.75;5084941;27;45311;-49
2021/07/08 08:54:34;;;;;;;;;4.00;4.00;;;;;21.10;52.32;101634.47;5103302;27;45433;-50
2021/07/08 08:57:01;;;;;;;;;4.00;3.00;;;;;21.14;52.01;101629.00;5102890;27;45323;-47
2021/07/08 08:59:26;;;;;;;;;5.75;4.75;;;;;21.15;51.68;101626.25;5103172;27;47100;-50
2021/07/08 09:02:10;;;;;;;;;5.25;5.00;;;;;21.18;51.87;101635.94;5103041;27;45158;-50
2021/07/08 09:04:36;;;;;;;;;5.00;4.00;;;;;21.20;52.40;101626.94;5103219;27;45314;-48
2021/07/08 09:07:22;;;;;;;;;7.00;5.50;;;;;21.26;51.68;101636.50;5081258;28;45333;-51
2021/07/08 09:09:49;;;;;;;;;5.50;4.00;;;;;21.31;51.68;101631.81;5101042;27;46136;-52
2021/07/08 09:12:17;;;;;;;;;7.00;4.00;;;;;21.27;52.01;101614.19;5102567;27;45306;-50
2021/07/08 09:14:44;;;;;;;;;1.50;1.50;;;;;21.39;51.71;101624.28;5102703;27;45318;-50
2021/07/08 09:17:21;;;;;;;;;9.00;7.00;;;;;21.45;51.61;101633.84;5102733;27;45239;-49
2021/07/08 09:19:48;;;;;;;;;5.75;5.00;;;;;21.51;51.70;101624.66;5102448;27;46178;-48
2021/07/08 09:22:30;;;;;;;;;5.75;3.25;;;;;21.60;51.71;101624.28;5102655;27;45572;-52
2021/07/08 09:24:56;;;;;;;;;5.25;5.25;;;;;21.66;51.50;101620.44;5095794;27;45484;-52
2021/07/08 09:27:26;;;;;;;;;6.00;6.00;;;;;21.72;51.51;101623.69;5102314;27;45216;-51
2021/07/08 09:29:51;;;;;;;;;4.00;4.00;;;;;21.76;51.24;101613.72;5102543;27;46176;-51
2021/07/08 09:32:20;;;;;;;;;5.25;4.00;;;;;21.82;50.99;101628.59;5102472;27;45395;-51
2021/07/08 09:34:57;;;;;;;;;5.75;4.75;;;;;21.87;51.34;101624.78;5102834;27;45290;-52
2021/07/08 09:37:25;;;;;;;;;4.00;4.00;;;;;21.90;50.84;101621.09;5102478;27;45648;-48
2021/07/08 09:39:58;;;;;;;;;5.00;5.00;;;;;21.99;51.02;101611.75;5102191;27;45451;-50
2021/07/08 09:42:32;;;;;;;;;3.00;3.00;;;;;22.05;50.89;101617.66;5102287;27;45361;-49
2021/07/08 09:45:21;;;;;;;;;5.75;3.75;;;;;22.12;50.34;101617.38;5102422;27;45298;-50
2021/07/08 09:47:47;;;;;;;;;8.00;4.00;;;;;22.20;50.45;101624.06;5102389;27;45429;-52
2021/07/08 09:50:33;;;;;;;;;5.00;4.00;;;;;22.26;50.39;101619.38;5102172;27;47125;-52
2021/07/08 09:53:20;;;;;;;;;5.00;4.25;;;;;22.31;50.28;101610.13;5083424;27;45283;-49
2021/07/08 09:58:30;;;;;;;;;4.50;4.00;;;;;22.43;50.24;101623.88;5102064;27;45205;-48
2021/07/08 10:00:55;;;;;;;;;5.00;5.00;;;;;22.45;50.03;101616.66;5101822;27;45242;-52
2021/07/08 10:03:21;;;;;;;;;4.25;4.25;;;;;22.48;50.31;101614.69;5102287;27;45287;-49
2021/07/08 10:05:47;;;;;;;;;4.75;4.75;;;;;22.54;50.14;101617.06;5102547;27;45198;-52
2021/07/08 10:08:12;;;;;;;;;4.00;4.00;;;;;22.62;50.24;101610.47;5102067;27;45174;-51
2021/07/08 10:10:40;;;;;;;;;4.00;4.00;;;;;22.69;50.16;101610.06;5080124;28;45260;-51
2021/07/08 10:13:07;;;;;;;;;5.50;5.50;;;;;22.78;49.95;101621.22;5088332;27;45388;-51
2021/07/08 10:15:35;;;;;;;;;5.00;5.00;;;;;22.84;49.59;101615.56;5101986;27;45291;-50
2021/07/08 10:18:03;;;;;;;;;3.75;3.75;;;;;22.86;49.35;101613.66;5083494;27;45477;-53
2021/07/08 10:20:30;;;;;;;;;6.00;5.25;;;;;22.92;49.44;101617.81;5101496;27;46149;-52
2021/07/08 10:22:57;;;;;;;;;4.75;4.50;;;;;22.94;49.77;101611.44;5101906;27;45248;-52
2021/07/08 10:25:23;;;;;;;;;4.75;4.75;;;;;22.96;49.50;101614.91;5101895;27;45425;-52
2021/07/08 10:27:49;;;;;;;;;5.00;5.00;;;;;22.93;49.23;101606.16;5101426;27;45549;-51
2021/07/08 10:30:18;;;;;;;;;5.25;3.25;;;;;23.02;49.24;101616.41;5101676;27;45230;-52
2021/07/08 10:32:43;;;;;;;;;4.00;4.00;;;;;23.05;48.85;101610.88;5101843;27;45359;-50
2021/07/08 10:35:09;;;;;;;;;7.75;6.75;;;;;23.06;48.86;101612.63;5101610;27;45479;-50
2021/07/08 10:37:39;;;;;;;;;4.00;4.00;;;;;23.14;49.10;101613.06;5083290;27;45334;-51
2021/07/08 10:40:06;;;;;;;;;7.75;6.75;;;;;23.23;49.01;101603.69;5101342;27;45219;-52
2021/07/08 10:42:46;;;;;;;;;6.00;6.00;;;;;23.37;49.12;101608.31;5101367;27;45269;-52
2021/07/08 10:45:26;;;;;;;;;4.00;4.00;;;;;23.52;48.78;101606.59;5101507;27;45340;-51
2021/07/08 10:48:16;;;;;;;;;4.00;4.00;;;;;23.63;48.25;101614.91;5101482;27;45512;-52
2021/07/08 10:50:42;;;;;;;;;5.75;4.50;;;;;23.74;48.59;101608.94;5101197;27;47118;-53
2021/07/08 10:53:26;;;;;;;;;4.00;4.00;;;;;23.88;48.56;101613.53;5101366;27;45481;-49
2021/07/08 10:55:56;;;;;;;;;5.00;4.75;;;;;24.01;48.19;101611.03;5101394;27;45260;-52
2021/07/08 10:58:38;;;;;;;;;5.50;4.75;;;;;24.15;48.58;101615.63;5100967;27;45258;-50
2021/07/08 11:01:06;;;;;;;;;6.50;6.25;;;;;24.25;48.46;101603.41;5101010;27;45265;-52
2021/07/08 11:03:39;;;;;;;;;4.75;4.75;;;;;24.38;48.35;101598.16;5083032;27;45314;-52
2021/07/08 11:06:14;;;;;;;;;4.00;4.00;;;;;24.47;48.12;101613.72;5082894;27;45198;-49
2021/07/08 11:08:45;;;;;;;;;5.00;3.00;;;;;24.56;47.87;101611.47;5101305;27;45521;-50
2021/07/08 11:11:23;;;;;;;;;6.00;6.00;;;;;24.62;47.98;101613.78;5100735;27;46382;-49
2021/07/08 11:13:56;;;;;;;;;4.75;4.75;;;;;24.66;47.78;101621.59;5099946;27;45631;-53
2021/07/08 11:16:44;;;;;;;;;5.50;5.25;;;;;24.72;47.30;101619.50;5100968;27;45366;-50
2021/07/08 11:19:12;;;;;;;;;4.25;4.00;;;;;24.69;47.78;101620.56;5100739;27;45336;-51
2021/07/08 11:21:49;;;;;;;;;5.50;4.00;;;;;24.60;47.05;101616.56;5100670;27;47249;-51
2021/07/08 11:24:18;;;;;;;;;5.50;5.50;;;;;24.54;47.07;101625.00;5100685;27;45263;-51
2021/07/08 11:26:55;;;;;;;;;6.00;6.00;;;;;24.45;47.17;101617.47;5100592;27;45232;-49
2021/07/08 11:29:33;;;;;;;;;4.75;4.75;;;;;24.36;46.95;101629.63;5100749;27;45222;-52
2021/07/08 11:31:58;;;;;;;;;4.75;4.50;;;;;24.24;46.95;101627.66;5100420;27;46325;-52